Time;durP1;ratioP1;P1;durP2;ratioP2;P2;SDS_P1;SDS_P2;PMS_P1;PMS_P2;Temp;Humidity;BMP_temperature;BMP_pressure;BME280_temperature;BME280_humidity;BME280_pressure;Samples;Min_cycle;Max_cycle;Signal;HPM_P1;HPM_P2
2022/10/13 00:01:57;;;;;;;10.63;2.97;;;13.90;99.90;;;;;;5008407;28;20125;-63
2022/10/13 00:04:24;;;;;;;9.18;2.53;;;14.00;99.90;;;;;;5008204;28;20046;-63
2022/10/13 00:06:51;;;;;;;9.32;2.47;;;14.00;99.90;;;;;;5008220;28;20058;-63
2022/10/13 00:09:17;;;;;;;14.75;2.88;;;14.00;99.90;;;;;;5008122;28;20297;-63
2022/10/13 00:11:44;;;;;;;9.90;2.72;;;13.90;99.90;;;;;;5008354;28;20046;-64
2022/10/13 00:14:11;;;;;;;11.27;2.70;;;13.90;99.90;;;;;;5002019;28;20061;-65
2022/10/13 00:16:38;;;;;;;12.32;3.22;;;13.90;99.90;;;;;;5007048;28;20068;-66
2022/10/13 00:19:05;;;;;;;9.18;2.63;;;13.90;99.90;;;;;;5008306;28;20060;-68
2022/10/13 00:21:32;;;;;;;12.98;2.80;;;13.80;99.90;;;;;;5009945;28;20573;-67
2022/10/13 00:23:58;;;;;;;11.38;2.80;;;13.90;99.90;;;;;;5012012;28;20056;-66
2022/10/13 00:26:25;;;;;;;10.97;1.90;;;13.80;99.90;;;;;;4664750;28;10000472;-66
2022/10/13 00:28:53;;;;;;;4.93;2.00;;;13.80;99.90;;;;;;5009424;28;20054;-66
2022/10/13 00:31:21;;;;;;;10.70;1.88;;;13.70;99.90;;;;;;5006992;28;20064;-66
2022/10/13 00:33:48;;;;;;;7.93;2.30;;;13.70;99.90;;;;;;5012097;28;20053;-66
2022/10/13 00:36:15;;;;;;;11.23;2.50;;;13.70;99.90;;;;;;5006767;28;20096;-66
2022/10/13 00:38:42;;;;;;;8.30;2.70;;;13.70;99.90;;;;;;5012162;28;20373;-66
2022/10/13 00:41:09;;;;;;;7.47;2.00;;;13.70;99.90;;;;;;5011728;28;20404;-65
2022/10/13 00:43:59;;;;;;;8.55;2.75;;;13.70;99.90;;;;;;5011994;28;20042;-66
2022/10/13 00:46:29;;;;;;;6.85;2.25;;;13.70;99.90;;;;;;5011569;28;20045;-68
2022/10/13 00:49:13;;;;;;;6.32;2.70;;;13.70;99.90;;;;;;5011746;28;20052;-66
2022/10/13 00:51:46;;;;;;;8.57;2.75;;;13.70;99.90;;;;;;5009742;28;20046;-66
2022/10/13 00:54:15;;;;;;;14.95;2.25;;;13.70;99.90;;;;;;5006088;28;20504;-66
2022/10/13 00:56:42;;;;;;;4.80;2.65;;;13.70;99.90;;;;;;5011401;28;20042;-63
2022/10/13 00:59:12;;;;;;;7.03;2.25;;;13.60;99.90;;;;;;5011267;28;20077;-65
2022/10/13 01:01:39;;;;;;;7.22;1.67;;;13.60;99.90;;;;;;5009247;28;20065;-65
2022/10/13 01:04:06;;;;;;;3.85;2.00;;;13.60;99.90;;;;;;5005099;28;20060;-66
2022/10/13 01:06:32;;;;;;;5.38;2.00;;;13.60;99.90;;;;;;5012985;28;20140;-64
2022/10/13 01:08:59;;;;;;;6.68;2.20;;;13.60;99.90;;;;;;5013535;28;20050;-66
2022/10/13 01:11:48;;;;;;;5.57;1.55;;;13.60;99.90;;;;;;5031026;28;20056;-64
2022/10/13 01:14:32;;;;;;;4.18;1.27;;;13.60;99.90;;;;;;5014329;28;20053;-63
2022/10/13 01:17:12;;;;;;;3.47;1.45;;;13.60;99.90;;;;;;5013227;28;20037;-65
2022/10/13 01:19:48;;;;;;;7.93;1.95;;;13.60;99.90;;;;;;5003825;28;20045;-65
2022/10/13 01:22:33;;;;;;;4.45;0.98;;;13.60;99.90;;;;;;5030629;28;20042;-65
2022/10/13 01:25:06;;;;;;;4.15;1.27;;;13.60;99.90;;;;;;5030784;28;20500;-64
2022/10/13 01:27:38;;;;;;;4.13;1.70;;;13.70;99.90;;;;;;5030604;28;20045;-64
2022/10/13 01:30:08;;;;;;;7.03;3.75;;;13.60;99.90;;;;;;5023326;28;20045;-64
2022/10/13 01:32:42;;;;;;;10.43;3.95;;;13.60;99.90;;;;;;5028847;28;20034;-64
2022/10/13 01:35:28;;;;;;;8.82;4.13;;;13.50;99.90;;;;;;5028895;28;20128;-65
2022/10/13 01:38:09;;;;;;;8.15;2.97;;;13.50;99.90;;;;;;5030425;28;20042;-65
2022/10/13 01:40:45;;;;;;;8.45;3.30;;;13.50;99.90;;;;;;5013415;28;20049;-66
2022/10/13 01:43:26;;;;;;;6.82;3.22;;;13.50;99.90;;;;;;5012519;28;20045;-65
2022/10/13 01:46:01;;;;;;;5.72;2.60;;;13.50;99.90;;;;;;5013307;28;20053;-64
2022/10/13 01:48:28;;;;;;;7.68;3.30;;;13.50;99.90;;;;;;5012662;28;20076;-65
2022/10/13 01:50:55;;;;;;;5.10;2.65;;;13.50;99.90;;;;;;5012955;28;20068;-65
2022/10/13 01:53:22;;;;;;;6.80;2.58;;;13.50;99.90;;;;;;5012618;28;20115;-65
2022/10/13 01:55:50;;;;;;;6.93;2.60;;;13.50;99.90;;;;;;5013056;28;20124;-65
2022/10/13 01:58:16;;;;;;;4.22;2.38;;;13.50;99.90;;;;;;5012924;28;20072;-64
2022/10/13 02:00:50;;;;;;;3.88;1.92;;;13.50;99.90;;;;;;5030575;28;20041;-65
2022/10/13 02:03:22;;;;;;;3.80;2.05;;;13.50;99.90;;;;;;5013245;28;20049;-64
2022/10/13 02:05:55;;;;;;;4.93;2.10;;;13.60;99.90;;;;;;5012789;28;20049;-64
2022/10/13 02:08:24;;;;;;;3.55;1.52;;;13.50;99.90;;;;;;5009188;28;20054;-64
2022/10/13 02:10:56;;;;;;;4.22;1.45;;;13.50;99.90;;;;;;5010481;28;20089;-65
2022/10/13 02:13:25;;;;;;;3.30;1.60;;;13.50;99.90;;;;;;5006151;28;20465;-64
2022/10/13 02:15:53;;;;;;;6.22;2.08;;;13.50;99.90;;;;;;5002033;28;20524;-65
2022/10/13 02:18:22;;;;;;;4.18;1.80;;;13.50;99.90;;;;;;5008856;28;20485;-65
2022/10/13 02:20:49;;;;;;;3.83;1.35;;;13.50;99.90;;;;;;5001130;28;20133;-66
2022/10/13 02:23:16;;;;;;;2.22;1.10;;;13.50;99.90;;;;;;5009041;28;20041;-65
2022/10/13 02:25:43;;;;;;;2.47;1.50;;;13.50;99.90;;;;;;5008370;28;20046;-66
2022/10/13 02:28:11;;;;;;;5.05;2.10;;;13.50;99.90;;;;;;5004514;28;20390;-66
2022/10/13 02:30:38;;;;;;;3.10;1.88;;;13.50;99.90;;;;;;5008566;28;20507;-65
2022/10/13 02:33:05;;;;;;;4.80;1.73;;;13.40;99.90;;;;;;5003271;28;20046;-65
2022/10/13 02:35:32;;;;;;;2.33;1.40;;;13.40;99.90;;;;;;5008813;28;20050;-67
2022/10/13 02:37:59;;;;;;;3.63;1.50;;;13.50;99.90;;;;;;5009929;28;20512;-66
2022/10/13 02:40:26;;;;;;;2.85;1.58;;;13.40;99.90;;;;;;5009492;28;20168;-66
2022/10/13 02:42:53;;;;;;;4.13;1.77;;;13.50;99.90;;;;;;5009715;28;20041;-66
2022/10/13 02:45:19;;;;;;;3.63;1.30;;;13.40;99.90;;;;;;5009204;28;20046;-65
2022/10/13 02:47:46;;;;;;;4.28;1.70;;;13.40;99.90;;;;;;5009968;28;20531;-66
2022/10/13 02:50:13;;;;;;;4.53;1.25;;;13.50;99.90;;;;;;5009457;28;20046;-67
2022/10/13 02:52:40;;;;;;;4.07;1.65;;;13.40;99.90;;;;;;5009871;28;20054;-66
2022/10/13 02:55:07;;;;;;;4.20;1.48;;;13.40;99.90;;;;;;5009380;28;20126;-66
2022/10/13 02:57:34;;;;;;;7.45;1.65;;;13.40;99.90;;;;;;5009723;28;20416;-67
2022/10/13 03:00:01;;;;;;;9.30;2.30;;;13.40;99.90;;;;;;5009348;28;20056;-67
2022/10/13 03:02:27;;;;;;;2.67;1.60;;;13.40;99.90;;;;;;4991560;28;20076;-67
2022/10/13 03:04:54;;;;;;;5.15;1.70;;;13.40;99.90;;;;;;5009736;28;20046;-66
2022/10/13 03:07:21;;;;;;;6.45;2.05;;;13.40;99.90;;;;;;5009465;28;20061;-67
2022/10/13 03:09:48;;;;;;;6.10;1.80;;;13.40;99.90;;;;;;5009395;28;20045;-68
2022/10/13 03:12:15;;;;;;;8.50;2.08;;;13.40;99.90;;;;;;5009084;28;20045;-67
2022/10/13 03:14:42;;;;;;;4.80;2.67;;;13.40;99.90;;;;;;5009161;28;20050;-67
2022/10/13 03:17:09;;;;;;;4.63;1.80;;;13.40;99.90;;;;;;5009086;28;20045;-67
2022/10/13 03:19:39;;;;;;;2.63;1.25;;;13.40;99.90;;;;;;5009365;28;20056;-67
2022/10/13 03:22:05;;;;;;;5.15;1.98;;;13.40;99.90;;;;;;5002663;28;20049;-66
2022/10/13 03:24:32;;;;;;;5.95;2.28;;;13.40;99.90;;;;;;5008991;28;20049;-67
2022/10/13 03:26:59;;;;;;;3.97;1.90;;;13.40;99.90;;;;;;5008870;28;20072;-65
2022/10/13 03:29:26;;;;;;;10.45;2.05;;;13.50;99.90;;;;;;5009058;28;20052;-66
2022/10/13 03:31:52;;;;;;;3.80;1.85;;;13.40;99.90;;;;;;5008804;28;20052;-68
2022/10/13 03:34:19;;;;;;;3.38;1.80;;;13.50;99.90;;;;;;5008849;28;20046;-67
2022/10/13 03:36:46;;;;;;;2.97;1.60;;;13.40;99.90;;;;;;5008933;28;20073;-66
2022/10/13 03:39:12;;;;;;;5.78;2.00;;;13.40;99.90;;;;;;5008782;28;20057;-67
2022/10/13 03:41:39;;;;;;;3.17;1.60;;;13.40;99.90;;;;;;5009125;28;20077;-67
2022/10/13 03:44:06;;;;;;;3.20;1.85;;;13.30;99.90;;;;;;5002388;28;20050;-66
2022/10/13 03:46:33;;;;;;;3.33;1.60;;;13.40;99.90;;;;;;5008808;28;20049;-66
2022/10/13 03:49:00;;;;;;;7.70;1.75;;;13.40;99.90;;;;;;5008859;28;20038;-66
2022/10/13 03:51:26;;;;;;;3.55;1.83;;;13.40;99.90;;;;;;5008879;28;20086;-66
2022/10/13 03:53:53;;;;;;;4.30;2.45;;;13.40;99.90;;;;;;5008583;28;20050;-66
2022/10/13 03:56:22;;;;;;;3.58;1.75;;;13.40;99.90;;;;;;5008626;28;20046;-66
2022/10/13 03:58:52;;;;;;;4.55;1.65;;;13.40;99.90;;;;;;4999834;28;20068;-67
2022/10/13 04:01:21;;;;;;;3.55;1.77;;;13.40;99.90;;;;;;5009017;28;20064;-67
2022/10/13 04:03:48;;;;;;;3.40;2.05;;;13.40;99.90;;;;;;5006143;28;20139;-66
2022/10/13 04:06:15;;;;;;;3.90;2.28;;;13.40;99.90;;;;;;5008030;28;20049;-66
2022/10/13 04:08:42;;;;;;;2.88;1.83;;;13.40;99.90;;;;;;5008582;28;20411;-67
2022/10/13 04:11:10;;;;;;;4.45;2.20;;;13.40;99.90;;;;;;5008506;28;20492;-67
2022/10/13 04:13:37;;;;;;;4.32;2.17;;;13.40;99.90;;;;;;5006116;28;20038;-65
2022/10/13 04:16:15;;;;;;;9.15;3.15;;;13.40;99.90;;;;;;5008482;28;20064;-66
2022/10/13 04:18:42;;;;;;;4.10;2.67;;;13.40;99.90;;;;;;5008149;28;20077;-66
2022/10/13 04:21:13;;;;;;;3.15;2.22;;;13.40;99.90;;;;;;5008348;28;20053;-67
2022/10/13 04:23:39;;;;;;;5.78;2.47;;;13.40;99.90;;;;;;5008514;28;20532;-67
2022/10/13 04:26:06;;;;;;;4.60;2.78;;;13.40;99.90;;;;;;5008692;28;20092;-67
2022/10/13 04:28:34;;;;;;;3.85;2.47;;;13.40;99.90;;;;;;5008243;28;20505;-66
2022/10/13 04:31:02;;;;;;;6.22;3.03;;;13.40;99.90;;;;;;5009839;28;20607;-66
2022/10/13 04:33:28;;;;;;;5.10;3.00;;;13.40;99.90;;;;;;5006645;28;20046;-66
2022/10/13 04:35:55;;;;;;;4.75;2.40;;;13.40;99.90;;;;;;5002095;28;20125;-67
2022/10/13 04:38:22;;;;;;;5.88;3.30;;;13.40;99.90;;;;;;5008410;28;20046;-66
2022/10/13 04:40:49;;;;;;;4.35;2.80;;;13.30;99.90;;;;;;5001014;28;20049;-66
2022/10/13 04:43:16;;;;;;;5.32;2.60;;;13.40;99.90;;;;;;5009242;28;20106;-66
2022/10/13 04:45:43;;;;;;;2.95;2.58;;;13.30;99.90;;;;;;5006539;28;20064;-66
2022/10/13 04:48:10;;;;;;;5.25;2.70;;;13.30;99.90;;;;;;5008588;28;20100;-66
2022/10/13 04:50:37;;;;;;;6.38;3.00;;;13.30;99.90;;;;;;5007736;28;20057;-66
2022/10/13 04:53:04;;;;;;;4.90;2.72;;;13.30;99.90;;;;;;5008342;28;20489;-67
2022/10/13 04:55:33;;;;;;;5.00;2.97;;;13.30;99.90;;;;;;5007971;28;20056;-66
2022/10/13 04:58:00;;;;;;;6.57;3.10;;;13.30;99.90;;;;;;5008385;28;20052;-67
2022/10/13 05:00:27;;;;;;;10.60;3.67;;;13.20;99.90;;;;;;5008478;28;20050;-67
2022/10/13 05:02:54;;;;;;;5.15;3.10;;;13.20;99.90;;;;;;5000828;28;20104;-66
2022/10/13 05:05:20;;;;;;;8.85;3.65;;;13.20;99.90;;;;;;5008300;28;20489;-66
2022/10/13 05:07:47;;;;;;;5.68;3.72;;;13.20;99.90;;;;;;5010934;28;20058;-65
2022/10/13 05:10:14;;;;;;;5.15;4.10;;;13.20;99.90;;;;;;5012284;28;20045;-66
2022/10/13 05:12:41;;;;;;;6.35;3.72;;;13.20;99.90;;;;;;5011791;28;20046;-66
2022/10/13 05:15:08;;;;;;;6.10;4.32;;;13.20;99.90;;;;;;5011259;28;20421;-66
2022/10/13 05:17:35;;;;;;;5.18;3.90;;;13.20;99.90;;;;;;5011840;28;20057;-66
2022/10/13 05:20:02;;;;;;;8.48;4.70;;;13.20;99.90;;;;;;5011747;28;20089;-66
2022/10/13 05:22:28;;;;;;;7.15;4.85;;;13.20;99.90;;;;;;5011794;28;20049;-67
2022/10/13 05:24:55;;;;;;;11.25;4.72;;;13.20;99.90;;;;;;5011111;28;20050;-67
2022/10/13 05:27:22;;;;;;;6.15;4.18;;;13.20;99.90;;;;;;5006976;28;20046;-67
2022/10/13 05:29:51;;;;;;;5.30;4.10;;;13.30;99.90;;;;;;5011586;28;20581;-66
2022/10/13 05:32:18;;;;;;;7.80;4.70;;;13.20;99.90;;;;;;5010836;28;20046;-66
2022/10/13 05:34:47;;;;;;;8.10;4.85;;;13.20;99.90;;;;;;5011339;28;20160;-66
2022/10/13 05:37:16;;;;;;;10.77;5.63;;;13.30;99.90;;;;;;4686184;28;10000648;-65
2022/10/13 05:39:43;;;;;;;7.32;4.88;;;13.30;99.90;;;;;;4990995;28;20321;-65
2022/10/13 05:42:14;;;;;;;9.57;5.10;;;13.20;99.90;;;;;;5008312;28;20492;-66
2022/10/13 05:44:41;;;;;;;10.95;5.55;;;13.40;99.90;;;;;;5006538;28;20053;-66
2022/10/13 05:47:08;;;;;;;11.68;6.20;;;13.30;99.90;;;;;;5007970;28;20084;-66
2022/10/13 05:49:40;;;;;;;10.93;5.95;;;13.30;99.90;;;;;;5008495;28;20057;-67
2022/10/13 05:52:09;;;;;;;9.45;5.28;;;13.30;99.90;;;;;;5002115;28;20145;-66
2022/10/13 05:54:45;;;;;;;8.75;5.53;;;13.30;99.90;;;;;;5007047;28;20046;-68
2022/10/13 05:57:14;;;;;;;10.27;5.60;;;13.30;99.90;;;;;;5007810;28;20084;-67
2022/10/13 05:59:43;;;;;;;9.65;6.05;;;13.30;99.90;;;;;;5008205;28;20046;-66
2022/10/13 06:02:11;;;;;;;14.70;7.82;;;13.30;99.90;;;;;;5007945;28;20065;-66
2022/10/13 06:04:40;;;;;;;12.23;6.18;;;13.40;99.90;;;;;;4997477;28;20085;-67
2022/10/13 06:07:07;;;;;;;14.48;6.68;;;13.40;99.90;;;;;;4997104;28;20575;-65
2022/10/13 06:09:36;;;;;;;9.35;6.25;;;13.40;99.90;;;;;;5005305;28;20049;-66
2022/10/13 06:12:04;;;;;;;8.05;5.28;;;13.40;99.90;;;;;;5000548;28;20145;-67
2022/10/13 06:14:31;;;;;;;8.93;5.35;;;13.40;99.90;;;;;;5007575;28;20390;-66
2022/10/13 06:16:58;;;;;;;8.35;5.57;;;13.40;99.90;;;;;;5007208;28;20048;-67
2022/10/13 06:19:24;;;;;;;6.85;5.20;;;13.40;99.90;;;;;;5005981;28;20056;-66
2022/10/13 06:21:51;;;;;;;8.50;5.18;;;13.40;99.90;;;;;;4998442;28;20054;-66
2022/10/13 06:24:18;;;;;;;6.55;4.68;;;13.40;99.90;;;;;;5007678;28;20257;-66
2022/10/13 06:26:45;;;;;;;6.63;4.90;;;13.30;99.90;;;;;;5006511;28;20439;-66
2022/10/13 06:29:11;;;;;;;7.57;4.60;;;13.40;99.90;;;;;;5006175;28;20050;-66
2022/10/13 06:31:39;;;;;;;8.80;4.93;;;13.40;99.90;;;;;;5004764;28;20536;-67
2022/10/13 06:34:06;;;;;;;8.50;5.57;;;13.40;99.90;;;;;;5007360;28;20316;-67
2022/10/13 06:36:35;;;;;;;9.90;4.75;;;13.40;99.90;;;;;;5007528;28;20056;-68
2022/10/13 06:39:02;;;;;;;8.13;5.10;;;13.40;99.90;;;;;;5006517;28;20057;-67
2022/10/13 06:41:29;;;;;;;9.43;5.15;;;13.40;99.90;;;;;;5007331;28;20050;-67
2022/10/13 06:43:56;;;;;;;8.02;4.82;;;13.40;99.90;;;;;;5006182;28;20060;-67
2022/10/13 06:46:23;;;;;;;9.68;5.53;;;13.40;99.90;;;;;;4989471;28;20065;-67
2022/10/13 06:48:50;;;;;;;9.40;5.07;;;13.40;99.90;;;;;;5005839;28;20236;-67
2022/10/13 06:51:16;;;;;;;10.32;5.38;;;13.40;99.90;;;;;;5005032;28;20049;-66
2022/10/13 06:53:43;;;;;;;6.53;5.32;;;13.40;99.90;;;;;;5005861;28;20049;-67
2022/10/13 06:56:10;;;;;;;7.97;5.28;;;13.50;99.90;;;;;;5006488;28;20560;-67
2022/10/13 06:58:37;;;;;;;9.52;5.38;;;13.50;99.90;;;;;;5006460;28;20122;-67
2022/10/13 07:01:04;;;;;;;10.15;5.63;;;13.50;99.90;;;;;;5006535;28;20137;-67
2022/10/13 07:03:31;;;;;;;10.55;5.68;;;13.60;99.90;;;;;;5005691;28;20054;-67
2022/10/13 07:06:02;;;;;;;9.57;4.95;;;13.50;99.90;;;;;;5004785;28;20497;-65
2022/10/13 07:08:30;;;;;;;10.52;5.97;;;13.60;99.90;;;;;;5004748;28;20053;-66
2022/10/13 07:10:57;;;;;;;11.15;6.57;;;13.60;99.90;;;;;;4998201;28;20058;-66
2022/10/13 07:13:23;;;;;;;8.48;6.38;;;13.60;99.90;;;;;;4986239;28;20050;-67
2022/10/13 07:15:50;;;;;;;8.55;5.60;;;13.60;99.90;;;;;;5004585;28;20064;-68
2022/10/13 07:18:17;;;;;;;9.63;5.82;;;13.60;99.90;;;;;;5004801;28;20052;-66
2022/10/13 07:20:44;;;;;;;8.43;5.82;;;13.60;99.90;;;;;;5004647;28;20129;-66
2022/10/13 07:23:10;;;;;;;10.02;6.53;;;13.60;99.90;;;;;;5004795;28;20112;-68
2022/10/13 07:25:38;;;;;;;7.07;5.97;;;13.70;99.90;;;;;;5004530;28;20214;-63
2022/10/13 07:28:04;;;;;;;7.68;5.55;;;13.60;99.90;;;;;;5005080;28;20049;-67
2022/10/13 07:30:31;;;;;;;12.35;6.60;;;13.60;99.90;;;;;;5004302;28;20066;-66
2022/10/13 07:32:58;;;;;;;10.13;6.40;;;13.60;99.90;;;;;;5004841;28;20046;-66
2022/10/13 07:35:25;;;;;;;10.20;7.00;;;13.60;99.90;;;;;;5001405;28;20522;-66
2022/10/13 07:37:56;;;;;;;10.20;6.65;;;13.70;99.90;;;;;;5006086;28;20073;-66
2022/10/13 07:40:23;;;;;;;12.55;7.80;;;13.60;99.90;;;;;;5005626;28;20053;-66
2022/10/13 07:42:50;;;;;;;10.30;6.45;;;13.70;99.90;;;;;;5006128;28;20134;-66
2022/10/13 07:45:16;;;;;;;10.10;8.20;;;13.70;99.90;;;;;;5008073;28;20046;-66
2022/10/13 07:47:43;;;;;;;13.00;7.97;;;13.70;99.90;;;;;;5006826;28;20046;-66
2022/10/13 07:50:10;;;;;;;12.88;8.75;;;13.70;99.90;;;;;;4996650;28;20468;-67
2022/10/13 07:52:37;;;;;;;8.02;7.00;;;13.70;99.90;;;;;;5008181;28;20121;-65
2022/10/13 07:55:04;;;;;;;16.13;8.50;;;13.70;99.90;;;;;;4994576;28;20049;-64
2022/10/13 07:57:31;;;;;;;10.70;7.90;;;13.60;99.90;;;;;;5008225;28;20587;-65
2022/10/13 07:59:58;;;;;;;9.35;7.28;;;13.70;99.90;;;;;;5007159;28;20112;-64
2022/10/13 08:02:25;;;;;;;10.05;7.55;;;13.70;99.90;;;;;;5004132;28;20053;-65
2022/10/13 08:04:52;;;;;;;12.15;8.93;;;13.70;99.90;;;;;;5007704;28;20172;-64
2022/10/13 08:07:19;;;;;;;11.07;8.23;;;13.80;99.90;;;;;;5007177;28;20062;-63
2022/10/13 08:09:46;;;;;;;13.43;8.27;;;13.80;99.90;;;;;;5008115;28;20041;-63
2022/10/13 08:12:13;;;;;;;13.93;8.52;;;13.90;99.90;;;;;;5008044;28;20065;-65
2022/10/13 08:14:40;;;;;;;14.50;6.93;;;13.90;99.90;;;;;;5008151;28;20049;-64
2022/10/13 08:17:07;;;;;;;10.70;7.70;;;14.00;99.90;;;;;;5007366;28;20054;-63
2022/10/13 08:19:34;;;;;;;12.35;8.23;;;14.10;99.90;;;;;;5008064;28;20064;-63
2022/10/13 08:22:01;;;;;;;12.32;8.43;;;14.10;99.90;;;;;;5000847;28;20089;-64
2022/10/13 08:24:33;;;;;;;13.90;9.75;;;14.20;99.90;;;;;;5008173;28;20128;-64
2022/10/13 08:27:00;;;;;;;14.38;9.38;;;14.30;99.90;;;;;;5007683;28;20049;-63
2022/10/13 08:29:26;;;;;;;10.30;8.63;;;14.30;99.90;;;;;;5008014;28;20056;-63
2022/10/13 08:31:54;;;;;;;12.77;7.55;;;14.40;99.90;;;;;;5008209;28;20484;-64
2022/10/13 08:34:22;;;;;;;10.48;7.32;;;14.40;99.90;;;;;;5008234;28;20133;-65
2022/10/13 08:36:51;;;;;;;11.05;6.78;;;14.40;99.90;;;;;;5008023;28;20133;-64
2022/10/13 08:39:20;;;;;;;10.55;6.15;;;14.50;99.90;;;;;;5008258;28;20042;-64
2022/10/13 08:41:46;;;;;;;10.27;5.60;;;14.50;99.90;;;;;;5008561;28;20046;-65
2022/10/13 08:44:34;;;;;;;9.00;6.25;;;14.50;99.90;;;;;;5006687;28;20074;-64
2022/10/13 08:47:28;;;;;;;7.57;4.45;;;14.60;99.90;;;;;;5006699;28;20054;-65
2022/10/13 08:49:56;;;;;;;8.90;4.57;;;14.80;99.90;;;;;;5009476;28;20065;-63
2022/10/13 08:52:28;;;;;;;10.52;4.03;;;14.80;99.90;;;;;;5008312;28;20046;-64
2022/10/13 08:54:55;;;;;;;6.65;4.40;;;14.90;99.90;;;;;;5011949;28;20187;-64
2022/10/13 08:57:22;;;;;;;7.47;4.30;;;14.90;99.90;;;;;;5006515;28;20128;-64
2022/10/13 08:59:49;;;;;;;5.43;3.95;;;15.00;99.90;;;;;;5000957;28;20116;-65
2022/10/13 09:02:26;;;;;;;7.95;4.00;;;15.00;99.90;;;;;;5006290;28;20045;-67
2022/10/13 09:04:52;;;;;;;7.65;4.28;;;15.10;99.90;;;;;;5003128;28;20563;-65
2022/10/13 09:07:27;;;;;;;8.23;3.53;;;15.10;99.90;;;;;;5011258;28;20160;-64
2022/10/13 09:09:54;;;;;;;7.65;3.78;;;15.10;99.90;;;;;;5003694;28;20139;-64
2022/10/13 09:12:24;;;;;;;4.88;3.72;;;15.10;99.90;;;;;;5011608;28;20046;-65
2022/10/13 09:15:06;;;;;;;7.40;3.28;;;15.10;99.90;;;;;;5011452;28;20060;-65
2022/10/13 09:17:33;;;;;;;5.88;3.72;;;15.10;99.90;;;;;;5011633;28;20137;-64
2022/10/13 09:20:06;;;;;;;7.55;3.38;;;15.10;99.90;;;;;;5011280;28;20612;-64
2022/10/13 09:22:35;;;;;;;7.40;3.28;;;15.10;99.90;;;;;;5011792;28;20050;-64
2022/10/13 09:25:09;;;;;;;6.32;3.28;;;15.10;99.90;;;;;;5011145;28;20049;-65
2022/10/13 09:27:48;;;;;;;6.07;3.55;;;15.00;99.90;;;;;;5010149;28;20049;-66
2022/10/13 09:30:31;;;;;;;4.97;3.47;;;14.90;99.90;;;;;;5007839;28;20042;-65
2022/10/13 09:33:03;;;;;;;8.30;3.40;;;15.00;99.90;;;;;;5010951;28;20132;-62
2022/10/13 09:35:33;;;;;;;6.60;2.05;;;15.00;99.90;;;;;;5007747;28;20050;-65
2022/10/13 09:38:04;;;;;;;5.45;2.40;;;15.10;99.90;;;;;;5010888;28;20619;-63
2022/10/13 09:40:31;;;;;;;9.00;1.70;;;15.10;99.90;;;;;;5010963;28;20052;-64
2022/10/13 09:42:59;;;;;;;6.70;2.17;;;15.10;99.90;;;;;;5002856;28;20104;-64
2022/10/13 09:45:26;;;;;;;2.78;1.40;;;15.10;99.90;;;;;;4660908;28;10000355;-64
2022/10/13 09:47:56;;;;;;;4.20;2.08;;;15.10;99.90;;;;;;5010119;28;20046;-64
2022/10/13 09:50:28;;;;;;;5.53;2.55;;;15.10;99.90;;;;;;5010558;28;20048;-63
2022/10/13 09:53:15;;;;;;;4.55;2.33;;;15.20;99.90;;;;;;4982879;28;20125;-65
2022/10/13 09:55:45;;;;;;;5.20;2.78;;;15.30;99.90;;;;;;5006371;28;20125;-64
2022/10/13 09:58:24;;;;;;;3.38;2.67;;;15.50;99.90;;;;;;5010743;28;20045;-64
2022/10/13 10:00:51;;;;;;;5.40;2.30;;;15.60;99.90;;;;;;5001730;28;20069;-65
2022/10/13 10:03:32;;;;;;;5.85;2.45;;;15.60;99.90;;;;;;5009374;28;20060;-65
2022/10/13 10:06:00;;;;;;;5.15;2.40;;;15.80;99.90;;;;;;4979895;28;20054;-64
2022/10/13 10:08:54;;;;;;;3.30;2.00;;;15.80;99.90;;;;;;5009241;28;20050;-65
2022/10/13 10:11:43;;;;;;;5.32;2.22;;;15.80;99.90;;;;;;5007042;28;20053;-64
2022/10/13 10:14:25;;;;;;;5.07;2.15;;;15.80;99.90;;;;;;5010179;28;20042;-65
2022/10/13 10:17:24;;;;;;;6.38;2.25;;;15.80;99.90;;;;;;5001601;28;20049;-64
2022/10/13 10:20:16;;;;;;;4.03;2.20;;;15.90;99.90;;;;;;5008930;28;20304;-65
2022/10/13 10:22:50;;;;;;;3.28;2.08;;;16.00;99.90;;;;;;4995928;28;20054;-65
2022/10/13 10:25:42;;;;;;;3.72;2.10;;;16.10;99.90;;;;;;4973824;28;20073;-65
2022/10/13 10:28:21;;;;;;;5.70;2.97;;;16.20;99.90;;;;;;4992740;28;20053;-64
2022/10/13 10:31:16;;;;;;;4.00;1.52;;;16.20;99.90;;;;;;5008022;28;20537;-65
2022/10/13 10:34:10;;;;;;;4.90;1.67;;;16.30;99.90;;;;;;5007364;28;20046;-65
2022/10/13 10:36:50;;;;;;;5.95;1.65;;;16.50;99.90;;;;;;5006817;28;20468;-65
2022/10/13 10:39:31;;;;;;;3.92;1.73;;;16.60;99.90;;;;;;5009361;28;20053;-66
2022/10/13 10:42:19;;;;;;;3.83;1.23;;;16.70;99.90;;;;;;5002234;28;20750;-65
2022/10/13 10:44:47;;;;;;;4.88;1.63;;;16.80;99.90;;;;;;4989347;28;20043;-66
2022/10/13 10:47:39;;;;;;;4.68;2.05;;;16.90;99.90;;;;;;5005237;28;20052;-65
2022/10/13 10:50:06;;;;;;;2.67;1.30;;;16.90;99.90;;;;;;4989153;28;20058;-64
2022/10/13 10:52:59;;;;;;;3.58;1.52;;;17.00;99.90;;;;;;5006293;28;20057;-65
2022/10/13 10:55:37;;;;;;;4.72;1.80;;;17.00;99.90;;;;;;5006366;28;20073;-65
2022/10/13 10:58:49;;;;;;;3.63;1.67;;;16.90;99.90;;;;;;5002805;28;20060;-66
2022/10/13 11:01:21;;;;;;;2.10;1.30;;;16.90;99.90;;;;;;5000812;28;20044;-66
2022/10/13 11:03:54;;;;;;;2.78;1.27;;;16.90;99.90;;;;;;5009220;28;20050;-64
2022/10/13 11:06:31;;;;;;;2.63;1.67;;;16.80;99.90;;;;;;5008523;28;20489;-66
2022/10/13 11:08:58;;;;;;;13.00;6.82;;;16.70;99.90;;;;;;5009331;28;20056;-66
2022/10/13 11:11:25;;;;;;;10.57;6.72;;;16.70;99.90;;;;;;5009267;28;20046;-66
2022/10/13 11:14:05;;;;;;;11.55;6.32;;;16.60;99.90;;;;;;5009337;28;20057;-66
2022/10/13 11:16:39;;;;;;;10.40;7.00;;;16.50;99.90;;;;;;5009245;28;20046;-65
2022/10/13 11:19:27;;;;;;;8.57;6.10;;;16.40;99.90;;;;;;5000033;28;20064;-66
2022/10/13 11:22:08;;;;;;;12.73;6.47;;;16.40;99.90;;;;;;5009024;28;20046;-68
2022/10/13 11:24:37;;;;;;;15.57;6.40;;;16.40;99.90;;;;;;5009109;28;20052;-65
2022/10/13 11:27:07;;;;;;;9.93;6.25;;;16.30;99.90;;;;;;5009469;28;20045;-66
2022/10/13 11:29:43;;;;;;;11.38;5.80;;;16.30;99.90;;;;;;5009168;28;20171;-66
2022/10/13 11:32:25;;;;;;;12.70;5.80;;;16.20;99.90;;;;;;5009222;28;20060;-65
2022/10/13 11:35:04;;;;;;;9.93;5.95;;;16.30;99.90;;;;;;5008583;28;20053;-66
2022/10/13 11:37:34;;;;;;;11.70;5.70;;;16.20;99.90;;;;;;5008779;28;20108;-66
2022/10/13 11:40:06;;;;;;;12.35;6.20;;;16.20;99.90;;;;;;5001781;28;20053;-66
2022/10/13 11:43:22;;;;;;;10.93;5.63;;;16.20;99.90;;;;;;5008981;28;20054;-66
2022/10/13 11:46:19;;;;;;;10.25;5.35;;;16.20;99.90;;;;;;4960412;28;20086;-65
2022/10/13 11:48:57;;;;;;;10.32;5.45;;;16.20;99.90;;;;;;5007427;28;20046;-65
2022/10/13 11:52:02;;;;;;;6.10;4.30;;;16.20;99.90;;;;;;5008588;28;20049;-66
2022/10/13 11:54:33;;;;;;;15.93;4.93;;;16.10;99.90;;;;;;5008487;28;20232;-65
2022/10/13 11:57:00;;;;;;;7.75;5.07;;;16.10;99.90;;;;;;5001479;28;20114;-65
2022/10/13 11:59:32;;;;;;;11.88;4.97;;;16.10;99.90;;;;;;5007379;28;20125;-65
2022/10/13 12:02:08;;;;;;;9.98;4.85;;;16.00;99.90;;;;;;5008424;28;20068;-65
2022/10/13 12:04:35;;;;;;;9.30;5.43;;;16.10;99.90;;;;;;5008485;28;20413;-64
2022/10/13 12:07:04;;;;;;;10.88;4.38;;;16.10;99.90;;;;;;5004391;28;20069;-64
2022/10/13 12:09:31;;;;;;;9.48;5.22;;;16.10;99.90;;;;;;5010568;28;20122;-65
2022/10/13 12:12:06;;;;;;;8.93;4.22;;;16.10;99.90;;;;;;5010803;28;20049;-67
2022/10/13 12:14:42;;;;;;;11.13;4.35;;;16.10;99.90;;;;;;5010507;28;20404;-66
2022/10/13 12:17:28;;;;;;;9.30;3.95;;;16.20;99.90;;;;;;5012152;28;20049;-65
2022/10/13 12:19:59;;;;;;;7.95;3.67;;;16.20;99.90;;;;;;5032072;28;20118;-65
2022/10/13 12:22:26;;;;;;;12.38;5.38;;;16.30;99.90;;;;;;5014753;28;20060;-64
2022/10/13 12:25:01;;;;;;;6.80;2.80;;;16.30;99.90;;;;;;5014668;28;20045;-65
2022/10/13 12:27:31;;;;;;;6.43;2.88;;;16.30;99.90;;;;;;5032033;28;20674;-64
2022/10/13 12:30:01;;;;;;;5.80;2.83;;;16.30;99.90;;;;;;5032076;28;20064;-64
2022/10/13 12:32:29;;;;;;;7.07;2.47;;;16.40;99.90;;;;;;5014617;28;20430;-64
2022/10/13 12:35:08;;;;;;;5.00;2.60;;;16.40;99.90;;;;;;5031627;28;20076;-65
2022/10/13 12:37:36;;;;;;;13.48;2.83;;;16.40;99.90;;;;;;5016268;28;20054;-65
2022/10/13 12:40:03;;;;;;;7.65;2.67;;;16.40;99.90;;;;;;5014144;28;20076;-65
2022/10/13 12:42:31;;;;;;;5.80;2.40;;;16.40;99.90;;;;;;5014612;28;20053;-65
2022/10/13 12:44:58;;;;;;;7.68;2.30;;;16.40;99.90;;;;;;5014114;28;20050;-65
2022/10/13 12:47:44;;;;;;;2.50;1.77;;;16.50;99.90;;;;;;5014381;28;20144;-63
2022/10/13 12:50:27;;;;;;;6.00;1.90;;;16.50;99.90;;;;;;5031735;28;20046;-64
2022/10/13 12:53:11;;;;;;;6.45;1.63;;;16.50;99.90;;;;;;5031568;28;20050;-64
2022/10/13 12:55:58;;;;;;;3.05;1.50;;;16.50;99.90;;;;;;5031510;28;20063;-64
2022/10/13 12:58:26;;;;;;;6.50;1.83;;;16.60;99.90;;;;;;5014574;28;20049;-64
2022/10/13 13:01:11;;;;;;;4.35;1.60;;;16.70;99.90;;;;;;5031450;28;20046;-64
2022/10/13 13:03:38;;;;;;;5.63;2.35;;;16.70;99.90;;;;;;5031198;28;20049;-64